Time;durP1;ratioP1;P1;durP2;ratioP2;P2;SDS_P1;SDS_P2;PMS_P1;PMS_P2;Temp;Humidity;BMP_temperature;BMP_pressure;BME280_temperature;BME280_humidity;BME280_pressure;Samples;Min_cycle;Max_cycle;Signal;HPM_P1;HPM_P2
2021/12/21 00:01:14;;;;;;;1.67;1.17;;;2.50;99.90;;;;;;4448792;32;20065;-66
2021/12/21 00:03:39;;;;;;;0.70;0.70;;;2.60;99.90;;;;;;4449338;32;20610;-64
2021/12/21 00:06:05;;;;;;;1.60;0.52;;;2.60;99.90;;;;;;4447894;32;20069;-67
2021/12/21 00:08:31;;;;;;;0.60;0.60;;;2.50;99.90;;;;;;4444035;32;20504;-65
2021/12/21 00:10:58;;;;;;;0.40;0.40;;;2.40;99.90;;;;;;4453524;32;20052;-65
2021/12/21 00:13:38;;;;;;;0.40;0.40;;;2.40;99.90;;;;;;4458267;32;20172;-66
2021/12/21 00:19:08;;;;;;;0.60;0.60;;;2.60;99.90;;;;;;4445716;32;20549;-65
2021/12/21 00:23:55;;;;;;;1.13;1.07;;;2.70;99.90;;;;;;4449260;32;20474;-66
2021/12/21 00:26:21;;;;;;;0.40;0.40;;;2.60;99.90;;;;;;4434722;32;20064;-66
2021/12/21 00:28:57;;;;;;;0.45;0.45;;;2.60;99.90;;;;;;4452317;32;20483;-66
2021/12/21 00:31:24;;;;;;;0.40;0.40;;;2.60;99.90;;;;;;4443480;32;20093;-65
2021/12/21 00:33:50;;;;;;;0.40;0.40;;;2.70;99.90;;;;;;4444161;32;20532;-66
2021/12/21 00:36:18;;;;;;;0.55;0.55;;;2.70;99.90;;;;;;4437432;32;20111;-66
2021/12/21 00:38:45;;;;;;;1.30;1.20;;;2.70;99.90;;;;;;4443512;32;20077;-66
2021/12/21 00:41:12;;;;;;;0.50;0.50;;;2.80;99.90;;;;;;4453800;32;20056;-66
2021/12/21 00:43:37;;;;;;;0.75;0.75;;;2.70;99.90;;;;;;4445019;32;20085;-65
2021/12/21 00:46:03;;;;;;;0.40;0.40;;;2.80;99.90;;;;;;4444143;32;20418;-66
2021/12/21 00:48:31;;;;;;;0.60;0.60;;;2.60;99.90;;;;;;4454097;32;20068;-66
2021/12/21 00:50:59;;;;;;;0.50;0.50;;;2.60;99.90;;;;;;4446209;32;20431;-65
2021/12/21 00:53:25;;;;;;;0.40;0.40;;;2.70;99.90;;;;;;4446940;32;20077;-65
2021/12/21 00:55:50;;;;;;;0.50;0.50;;;2.70;99.90;;;;;;4449935;32;20130;-65
2021/12/21 00:58:16;;;;;;;0.40;0.40;;;2.60;99.90;;;;;;4445672;32;20077;-65
2021/12/21 01:00:42;;;;;;;0.50;0.50;;;2.50;99.90;;;;;;4445885;32;20086;-65
2021/12/21 01:03:11;;;;;;;0.75;0.75;;;2.50;99.90;;;;;;4446509;32;20130;-66
2021/12/21 01:05:46;;;;;;;0.40;0.40;;;2.50;99.90;;;;;;4438775;32;20521;-66
2021/12/21 01:08:16;;;;;;;0.50;0.50;;;2.40;99.90;;;;;;4436042;32;20495;-66
2021/12/21 01:11:20;;;;;;;0.43;0.43;;;2.40;99.90;;;;;;4446260;32;20286;-65
2021/12/21 01:13:55;;;;;;;4.28;1.70;;;2.40;99.90;;;;;;4435496;32;20132;-66
2021/12/21 01:16:23;;;;;;;3.70;1.25;;;2.50;99.90;;;;;;4430844;32;20066;-66
2021/12/21 01:19:02;;;;;;;0.40;0.40;;;2.50;99.90;;;;;;4446225;32;20077;-65
2021/12/21 01:21:33;;;;;;;1.77;0.80;;;2.50;99.90;;;;;;4447243;32;20505;-65
2021/12/21 01:27:11;;;;;;;0.30;0.30;;;2.40;99.90;;;;;;4453177;32;20115;-65
2021/12/21 01:29:27;;;;;;;0.50;0.50;;;2.40;99.90;;;;;;4445034;32;20094;-65
2021/12/21 01:32:03;;;;;;;0.40;0.40;;;2.40;99.90;;;;;;4446333;32;20082;-64
2021/12/21 01:35:35;;;;;;;0.30;0.30;;;2.40;99.90;;;;;;4445827;32;20546;-65
2021/12/21 01:37:23;;;;;;;0.50;0.50;;;2.30;99.90;;;;;;4435208;32;20072;-65
2021/12/21 01:40:18;;;;;;;0.40;0.40;;;2.30;99.90;;;;;;4442955;32;20178;-65
2021/12/21 01:42:49;;;;;;;5.03;1.10;;;2.30;99.90;;;;;;4435475;32;20065;-66
2021/12/21 01:50:52;;;;;;;0.50;0.50;;;2.20;99.90;;;;;;4438748;32;20088;-65
2021/12/21 01:53:17;;;;;;;0.50;0.50;;;2.20;99.90;;;;;;4446928;32;20102;-66
2021/12/21 01:55:43;;;;;;;0.82;0.82;;;2.20;99.90;;;;;;4447873;32;20061;-65
2021/12/21 01:58:09;;;;;;;1.20;1.10;;;2.20;99.90;;;;;;4446648;32;20081;-65
2021/12/21 02:00:36;;;;;;;0.40;0.40;;;2.10;99.90;;;;;;4445486;32;20164;-65
2021/12/21 02:03:03;;;;;;;0.40;0.40;;;2.20;99.90;;;;;;4447626;32;20077;-65
2021/12/21 02:05:29;;;;;;;0.50;0.50;;;2.30;99.90;;;;;;4445078;32;20078;-65
2021/12/21 02:07:54;;;;;;;0.40;0.40;;;2.30;99.90;;;;;;4447409;32;20455;-66
2021/12/21 02:10:20;;;;;;;0.60;0.60;;;2.40;99.90;;;;;;4450783;32;20080;-66
2021/12/21 02:12:46;;;;;;;0.40;0.40;;;2.40;99.90;;;;;;4447152;32;20097;-65
2021/12/21 02:15:12;;;;;;;0.40;0.40;;;2.40;99.90;;;;;;4447253;32;20180;-65
2021/12/21 02:20:20;;;;;;;2.43;1.37;;;2.40;99.90;;;;;;4445561;32;20137;-66
2021/12/21 02:22:54;;;;;;;1.62;0.93;;;2.40;99.90;;;;;;4445824;32;20134;-65
2021/12/21 02:27:58;;;;;;;0.50;0.50;;;2.40;99.90;;;;;;4432802;32;20077;-66
2021/12/21 02:30:24;;;;;;;0.50;0.50;;;2.40;99.90;;;;;;4442179;32;20077;-65
2021/12/21 02:32:52;;;;;;;1.10;1.02;;;2.40;99.90;;;;;;4454606;32;20427;-65
2021/12/21 02:35:18;;;;;;;0.40;0.40;;;2.40;99.90;;;;;;4456948;32;20676;-65
2021/12/21 02:37:44;;;;;;;0.60;0.60;;;2.40;99.90;;;;;;4440657;32;20058;-65
2021/12/21 02:40:10;;;;;;;0.62;0.62;;;2.50;99.90;;;;;;4450568;32;20130;-65
2021/12/21 02:42:36;;;;;;;1.12;0.62;;;2.50;99.90;;;;;;4446016;32;20057;-66
2021/12/21 02:45:02;;;;;;;1.55;1.10;;;2.50;99.90;;;;;;4445630;32;20061;-65
2021/12/21 02:47:28;;;;;;;0.57;0.57;;;2.50;99.90;;;;;;4438924;32;20093;-66
2021/12/21 02:49:53;;;;;;;0.50;0.50;;;2.50;99.90;;;;;;4430360;32;20062;-65
2021/12/21 02:52:19;;;;;;;1.55;0.80;;;2.50;99.90;;;;;;4438283;32;20061;-65
2021/12/21 02:54:44;;;;;;;0.40;0.40;;;2.50;99.90;;;;;;4453682;32;20118;-64
2021/12/21 02:57:10;;;;;;;0.50;0.50;;;2.50;99.90;;;;;;4445738;32;20082;-66
2021/12/21 02:59:35;;;;;;;2.92;1.85;;;2.50;99.90;;;;;;4444120;32;20107;-65
2021/12/21 03:02:01;;;;;;;0.75;0.75;;;2.60;99.90;;;;;;4451615;32;20076;-65
2021/12/21 03:04:26;;;;;;;1.75;0.62;;;2.60;99.90;;;;;;4446825;32;20084;-65
2021/12/21 03:07:35;;;;;;;0.50;0.50;;;2.60;99.90;;;;;;4445338;32;20501;-65
2021/12/21 03:09:40;;;;;;;0.57;0.57;;;2.50;99.90;;;;;;4448200;32;20526;-64
2021/12/21 03:14:37;;;;;;;0.50;0.50;;;2.50;99.90;;;;;;4445317;32;20462;-65
2021/12/21 03:17:04;;;;;;;0.95;0.90;;;2.40;99.90;;;;;;4445321;32;20109;-65
2021/12/21 03:19:30;;;;;;;0.50;0.50;;;2.40;99.90;;;;;;4444637;32;20089;-65
2021/12/21 03:21:55;;;;;;;0.47;0.47;;;2.30;99.90;;;;;;4444726;32;20057;-64
2021/12/21 03:24:21;;;;;;;0.40;0.40;;;2.30;99.90;;;;;;4447107;32;20548;-66
2021/12/21 03:26:47;;;;;;;1.98;1.02;;;2.40;99.90;;;;;;4445891;32;20069;-65
2021/12/21 03:29:13;;;;;;;0.30;0.30;;;2.40;99.90;;;;;;4444596;32;20465;-65
2021/12/21 03:31:38;;;;;;;0.37;0.37;;;2.30;99.90;;;;;;4449411;32;20057;-66
2021/12/21 03:34:05;;;;;;;0.55;0.55;;;2.40;99.90;;;;;;4450606;32;20080;-66
2021/12/21 03:36:31;;;;;;;0.52;0.52;;;2.50;99.90;;;;;;4446925;32;20093;-65
2021/12/21 03:39:04;;;;;;;0.40;0.40;;;2.40;99.90;;;;;;4447669;32;20559;-65
2021/12/21 03:41:30;;;;;;;0.50;0.50;;;2.40;99.90;;;;;;4446705;32;20068;-66
2021/12/21 03:43:59;;;;;;;0.40;0.40;;;2.50;99.90;;;;;;4451050;32;20056;-65
2021/12/21 03:46:25;;;;;;;1.17;1.08;;;2.40;99.90;;;;;;4444785;32;20123;-66
2021/12/21 03:48:51;;;;;;;0.80;0.80;;;2.40;99.90;;;;;;4445721;32;20073;-65
2021/12/21 03:51:19;;;;;;;0.50;0.50;;;2.40;99.90;;;;;;4443916;32;20073;-66
2021/12/21 03:53:46;;;;;;;0.50;0.50;;;2.40;99.90;;;;;;4431243;32;20491;-64
2021/12/21 03:58:39;;;;;;;0.40;0.40;;;2.40;99.90;;;;;;4444072;32;20145;-66
2021/12/21 04:01:05;;;;;;;0.90;0.90;;;2.40;99.90;;;;;;4446065;32;20092;-66
2021/12/21 04:03:30;;;;;;;0.88;0.88;;;2.40;99.90;;;;;;4454417;32;20049;-66
2021/12/21 04:05:57;;;;;;;0.60;0.60;;;2.30;99.90;;;;;;4440100;32;20493;-66
2021/12/21 04:08:22;;;;;;;0.60;0.60;;;2.30;99.90;;;;;;4434512;32;20061;-66
2021/12/21 04:10:47;;;;;;;0.50;0.50;;;2.40;99.90;;;;;;4446612;32;20056;-66
2021/12/21 04:13:13;;;;;;;0.80;0.80;;;2.30;99.90;;;;;;4443178;32;20057;-65
2021/12/21 04:15:50;;;;;;;0.30;0.30;;;2.30;99.90;;;;;;4444363;32;20146;-66
2021/12/21 04:18:18;;;;;;;0.60;0.50;;;2.40;99.90;;;;;;4442866;32;20541;-66
2021/12/21 04:20:44;;;;;;;8.40;2.40;;;2.40;99.90;;;;;;4444365;32;20056;-65
2021/12/21 04:23:10;;;;;;;1.02;1.02;;;2.50;99.90;;;;;;4447627;32;20065;-65
2021/12/21 04:25:36;;;;;;;0.50;0.50;;;2.50;99.90;;;;;;4443579;32;20049;-65
2021/12/21 04:28:02;;;;;;;0.68;0.65;;;2.50;99.90;;;;;;4444111;32;20081;-65
2021/12/21 04:30:28;;;;;;;3.17;0.93;;;2.40;99.90;;;;;;4442726;32;20089;-65
2021/12/21 04:32:53;;;;;;;1.95;0.95;;;2.40;99.90;;;;;;4448375;32;86061;-65
2021/12/21 04:35:20;;;;;;;0.82;0.82;;;2.40;99.90;;;;;;4459632;32;20065;-65
2021/12/21 04:37:52;;;;;;;1.27;1.17;;;2.40;99.90;;;;;;4440468;32;20053;-65
2021/12/21 04:40:20;;;;;;;4.53;1.70;;;2.50;99.90;;;;;;4442145;32;20134;-65
2021/12/21 04:42:46;;;;;;;0.62;0.60;;;2.50;99.90;;;;;;4437251;32;20174;-66
2021/12/21 04:45:11;;;;;;;1.12;1.00;;;2.60;99.90;;;;;;4443631;32;20065;-66
2021/12/21 04:47:37;;;;;;;6.60;1.35;;;2.50;99.90;;;;;;4454579;32;20053;-66
2021/12/21 04:50:03;;;;;;;0.60;0.50;;;2.50;99.90;;;;;;4452142;32;20092;-66
2021/12/21 04:52:28;;;;;;;0.62;0.62;;;2.60;99.90;;;;;;4445072;32;20085;-65
2021/12/21 04:54:55;;;;;;;0.50;0.50;;;2.60;99.90;;;;;;4445534;32;20057;-65
2021/12/21 04:57:20;;;;;;;0.40;0.40;;;2.60;99.90;;;;;;4444284;32;20057;-66
2021/12/21 04:59:46;;;;;;;0.70;0.70;;;2.60;99.90;;;;;;4450974;32;20060;-66
2021/12/21 05:02:11;;;;;;;0.52;0.52;;;2.50;99.90;;;;;;4447230;32;20082;-65
2021/12/21 05:04:38;;;;;;;0.50;0.50;;;2.40;99.90;;;;;;4449568;32;20088;-66
2021/12/21 05:07:04;;;;;;;1.48;0.82;;;2.50;99.90;;;;;;4444028;32;20097;-66
2021/12/21 05:09:39;;;;;;;1.85;1.52;;;2.40;99.90;;;;;;4443531;32;20085;-67
2021/12/21 05:12:07;;;;;;;0.70;0.70;;;2.40;99.90;;;;;;4444483;32;20525;-66
2021/12/21 05:14:33;;;;;;;0.80;0.80;;;2.50;99.90;;;;;;4460190;32;20329;-65
2021/12/21 05:16:58;;;;;;;0.68;0.68;;;2.50;99.90;;;;;;4458645;32;20053;-64
2021/12/21 05:19:24;;;;;;;1.15;0.77;;;2.50;99.90;;;;;;4450999;32;20575;-65
2021/12/21 05:21:51;;;;;;;0.80;0.80;;;2.50;99.90;;;;;;4435319;32;20068;-65
2021/12/21 05:24:17;;;;;;;1.12;1.05;;;2.50;99.90;;;;;;4440938;32;20373;-66
2021/12/21 05:26:43;;;;;;;0.40;0.40;;;2.50;99.90;;;;;;4442247;32;20452;-64
2021/12/21 05:29:08;;;;;;;0.60;0.60;;;2.60;99.90;;;;;;4445074;32;20064;-64
2021/12/21 05:31:34;;;;;;;0.90;0.90;;;2.60;99.90;;;;;;4446635;32;20061;-65
2021/12/21 05:34:00;;;;;;;0.55;0.55;;;2.50;99.90;;;;;;4442939;32;20265;-65
2021/12/21 05:36:25;;;;;;;0.68;0.68;;;2.50;99.90;;;;;;4450899;32;20061;-65
2021/12/21 05:38:56;;;;;;;0.50;0.50;;;2.50;99.90;;;;;;4444860;32;20576;-65
2021/12/21 05:41:26;;;;;;;2.55;1.50;;;2.50;99.90;;;;;;4445633;32;20524;-65
2021/12/21 05:43:52;;;;;;;0.88;0.88;;;2.60;99.90;;;;;;4447662;32;20100;-65
2021/12/21 05:46:18;;;;;;;0.93;0.88;;;2.50;99.90;;;;;;4446969;32;20038;-64
2021/12/21 05:48:44;;;;;;;0.60;0.60;;;2.50;99.90;;;;;;4447357;32;20093;-65
2021/12/21 05:51:09;;;;;;;0.50;0.50;;;2.60;99.90;;;;;;4446236;32;20089;-66
2021/12/21 05:53:35;;;;;;;1.00;0.95;;;2.50;99.90;;;;;;4455833;32;20085;-65
2021/12/21 05:56:00;;;;;;;17.37;2.25;;;2.50;99.90;;;;;;4457988;32;20081;-65
2021/12/21 05:58:26;;;;;;;0.82;0.80;;;2.50;99.90;;;;;;4460821;32;20521;-65
2021/12/21 06:00:51;;;;;;;0.70;0.70;;;2.60;99.90;;;;;;4447642;32;20178;-65
2021/12/21 06:03:17;;;;;;;0.73;0.73;;;2.60;99.90;;;;;;4439724;32;20163;-65
2021/12/21 06:05:43;;;;;;;7.43;1.25;;;2.50;99.90;;;;;;4440429;32;20056;-64
2021/12/21 06:08:09;;;;;;;1.70;0.80;;;2.40;99.90;;;;;;4444940;32;20093;-65
2021/12/21 06:10:39;;;;;;;1.80;1.23;;;2.40;99.90;;;;;;4444282;32;20109;-65
2021/12/21 06:15:44;;;;;;;1.45;0.85;;;2.50;99.90;;;;;;4440728;32;20060;-66
2021/12/21 06:23:18;;;;;;;1.65;0.95;;;2.50;99.90;;;;;;4439001;32;20211;-64
2021/12/21 06:26:16;;;;;;;0.50;0.50;;;2.50;99.90;;;;;;4433726;32;20242;-64
2021/12/21 06:28:43;;;;;;;0.45;0.45;;;2.50;99.90;;;;;;4434229;32;20635;-64
2021/12/21 06:31:09;;;;;;;0.88;0.88;;;2.50;99.90;;;;;;4418531;32;20187;-67
2021/12/21 06:33:35;;;;;;;2.42;1.42;;;2.40;99.90;;;;;;4432686;32;20123;-66
2021/12/21 06:36:02;;;;;;;0.82;0.82;;;2.30;99.90;;;;;;4443927;32;20127;-67
2021/12/21 06:38:29;;;;;;;0.80;0.80;;;2.30;99.90;;;;;;4436068;32;20084;-66
2021/12/21 06:40:55;;;;;;;0.45;0.45;;;2.30;99.90;;;;;;4441219;32;20589;-64
2021/12/21 06:43:22;;;;;;;0.55;0.55;;;2.40;99.90;;;;;;4437553;32;20400;-65
2021/12/21 06:45:56;;;;;;;1.10;0.93;;;2.40;99.90;;;;;;4438875;32;20080;-65
2021/12/21 06:51:15;;;;;;;0.65;0.65;;;2.50;99.90;;;;;;4427045;32;20298;-67
2021/12/21 06:53:44;;;;;;;2.15;1.10;;;2.60;99.90;;;;;;4429139;32;20569;-66
2021/12/21 06:56:10;;;;;;;1.37;1.02;;;2.60;99.90;;;;;;4423985;32;20089;-66
2021/12/21 06:58:36;;;;;;;0.50;0.50;;;2.60;99.90;;;;;;4429727;32;20147;-66
2021/12/21 07:01:03;;;;;;;2.58;1.70;;;2.50;99.90;;;;;;4430057;32;20234;-65
2021/12/21 07:03:29;;;;;;;0.40;0.40;;;2.50;99.90;;;;;;4427529;32;20416;-65
2021/12/21 07:05:57;;;;;;;1.08;0.98;;;2.60;99.90;;;;;;4436211;32;20281;-65
2021/12/21 07:08:27;;;;;;;0.43;0.43;;;2.70;99.90;;;;;;4433649;32;20171;-64
2021/12/21 07:11:16;;;;;;;0.68;0.55;;;2.60;99.90;;;;;;4436356;32;20069;-65
2021/12/21 07:18:29;;;;;;;3.17;1.33;;;2.60;99.90;;;;;;4435719;32;20077;-64
2021/12/21 07:19:10;;;;;;;1.52;1.20;;;2.60;99.90;;;;;;4429346;32;20172;-65
2021/12/21 07:21:37;;;;;;;1.00;0.68;;;2.50;99.90;;;;;;4431910;32;20085;-65
2021/12/21 07:24:03;;;;;;;0.77;0.77;;;2.50;99.90;;;;;;4430478;32;20098;-65
2021/12/21 07:26:28;;;;;;;0.73;0.73;;;2.60;99.90;;;;;;4433125;32;20073;-65
2021/12/21 07:28:55;;;;;;;7.15;3.05;;;2.60;99.90;;;;;;4431064;32;20076;-65
2021/12/21 07:31:20;;;;;;;11.93;1.92;;;2.60;99.90;;;;;;4437125;32;20101;-65
2021/12/21 07:33:46;;;;;;;0.73;0.73;;;2.60;99.90;;;;;;4431657;32;20128;-64
2021/12/21 07:36:11;;;;;;;2.53;1.08;;;2.60;99.90;;;;;;4428985;32;20684;-64
2021/12/21 07:38:37;;;;;;;1.55;1.45;;;2.60;99.90;;;;;;4429212;32;20201;-64
2021/12/21 07:41:03;;;;;;;0.70;0.70;;;2.50;99.90;;;;;;4430994;32;20512;-65
2021/12/21 07:43:29;;;;;;;1.25;0.93;;;2.60;99.90;;;;;;4428140;32;20098;-65
2021/12/21 07:45:55;;;;;;;0.88;0.75;;;2.60;99.90;;;;;;4427804;32;20552;-65
2021/12/21 07:48:21;;;;;;;0.85;0.85;;;2.60;99.90;;;;;;4430495;32;20097;-65
2021/12/21 07:50:47;;;;;;;1.33;1.23;;;2.60;99.90;;;;;;4433330;32;20088;-65
2021/12/21 07:53:15;;;;;;;0.85;0.85;;;2.60;99.90;;;;;;4428723;32;20110;-65
2021/12/21 07:55:42;;;;;;;0.65;0.65;;;2.50;99.90;;;;;;4432640;32;20117;-66
2021/12/21 07:58:08;;;;;;;1.40;1.00;;;2.50;99.90;;;;;;4431005;32;20561;-65
2021/12/21 08:00:34;;;;;;;1.05;0.65;;;2.50;99.90;;;;;;4426345;32;20057;-63
2021/12/21 08:03:00;;;;;;;2.65;1.37;;;2.60;99.90;;;;;;4430234;32;20076;-65
2021/12/21 08:05:30;;;;;;;4.40;1.60;;;2.50;99.90;;;;;;4424314;32;20081;-67
2021/12/21 08:08:05;;;;;;;;;;;2.50;99.90;;;;;;4430509;32;20097;-65
2021/12/21 08:10:42;;;;;;;1.62;1.30;;;2.60;99.90;;;;;;4431638;32;19995;-65
2021/12/21 08:13:08;;;;;;;1.10;1.05;;;2.50;99.90;;;;;;4431265;32;20896;-64
2021/12/21 08:15:33;;;;;;;3.87;1.83;;;2.50;99.90;;;;;;4430749;32;20092;-65
2021/12/21 08:17:59;;;;;;;1.35;1.25;;;2.60;99.90;;;;;;4431214;32;20100;-65
2021/12/21 08:20:27;;;;;;;8.60;1.30;;;2.50;99.90;;;;;;4431211;32;20386;-65
2021/12/21 08:22:53;;;;;;;1.73;1.15;;;2.50;99.90;;;;;;4430091;32;20501;-66
2021/12/21 08:25:24;;;;;;;0.60;0.60;;;2.50;99.90;;;;;;4430133;32;20105;-65
2021/12/21 08:27:50;;;;;;;0.60;0.60;;;2.50;99.90;;;;;;4430926;32;20097;-65
2021/12/21 08:30:16;;;;;;;0.50;0.50;;;2.50;99.90;;;;;;4430298;32;20935;-67
2021/12/21 08:32:41;;;;;;;1.12;0.85;;;2.50;99.90;;;;;;4424628;32;20088;-66
2021/12/21 08:35:07;;;;;;;0.75;0.75;;;2.60;99.90;;;;;;4425433;32;20076;-65
2021/12/21 08:37:34;;;;;;;1.60;1.20;;;2.60;99.90;;;;;;4425809;32;20105;-65
2021/12/21 08:40:00;;;;;;;0.60;0.60;;;2.50;99.90;;;;;;4433681;32;20088;-66
2021/12/21 08:42:26;;;;;;;2.35;1.48;;;2.50;99.90;;;;;;4433571;32;20746;-64
2021/12/21 08:44:52;;;;;;;4.47;1.77;;;2.60;99.90;;;;;;4430243;32;20089;-64
2021/12/21 08:47:18;;;;;;;0.62;0.60;;;2.50;99.90;;;;;;4428600;32;20084;-65
2021/12/21 08:49:43;;;;;;;0.50;0.50;;;2.70;99.90;;;;;;4427520;32;20387;-64
2021/12/21 08:52:09;;;;;;;1.02;1.00;;;2.60;99.90;;;;;;4425717;32;20123;-64
2021/12/21 08:54:34;;;;;;;1.10;1.00;;;2.60;99.90;;;;;;4420516;32;20131;-63
2021/12/21 08:57:00;;;;;;;0.55;0.55;;;2.60;99.90;;;;;;4417031;32;20097;-64
2021/12/21 08:59:25;;;;;;;0.52;0.52;;;2.60;99.90;;;;;;4428127;32;20140;-65
2021/12/21 09:01:53;;;;;;;0.62;0.60;;;2.60;99.90;;;;;;4430146;32;20085;-65
2021/12/21 09:04:20;;;;;;;1.23;1.12;;;2.70;99.90;;;;;;4431892;32;20073;-65
2021/12/21 09:06:45;;;;;;;1.00;0.95;;;2.70;99.90;;;;;;4432887;32;20136;-66
2021/12/21 09:09:11;;;;;;;0.60;0.60;;;2.70;99.90;;;;;;4432282;32;20159;-65
2021/12/21 09:11:38;;;;;;;3.78;0.93;;;2.70;99.90;;;;;;4435775;32;20081;-65
2021/12/21 09:14:04;;;;;;;6.35;0.75;;;2.70;99.90;;;;;;4437277;32;20127;-64
2021/12/21 09:16:29;;;;;;;1.05;0.95;;;2.70;99.90;;;;;;4435252;32;20165;-63
2021/12/21 09:18:55;;;;;;;0.88;0.88;;;2.70;99.90;;;;;;4439024;32;20395;-63
2021/12/21 09:21:21;;;;;;;0.82;0.82;;;2.50;99.90;;;;;;4434697;32;20907;-64
2021/12/21 09:23:46;;;;;;;3.37;1.65;;;2.60;99.90;;;;;;4438278;32;20631;-64
2021/12/21 09:26:12;;;;;;;1.52;0.90;;;2.60;99.90;;;;;;4435181;32;20088;-66
2021/12/21 09:28:37;;;;;;;2.22;1.12;;;2.60;99.90;;;;;;4435908;32;20060;-64
2021/12/21 09:31:05;;;;;;;0.50;0.50;;;2.60;99.90;;;;;;4442859;32;20080;-66
2021/12/21 09:33:31;;;;;;;0.90;0.90;;;2.70;99.90;;;;;;4438395;32;20132;-67
2021/12/21 09:35:57;;;;;;;2.40;1.80;;;2.70;99.90;;;;;;4437192;32;20133;-65
2021/12/21 09:38:25;;;;;;;3.08;1.62;;;2.60;99.90;;;;;;4435771;32;20124;-65
2021/12/21 09:40:54;;;;;;;5.22;2.30;;;2.60;99.90;;;;;;4439065;32;20110;-65
2021/12/21 09:43:19;;;;;;;2.03;1.10;;;2.60;99.90;;;;;;4435389;32;20066;-68
2021/12/21 09:45:45;;;;;;;0.52;0.52;;;2.70;99.90;;;;;;4438466;32;20120;-66
2021/12/21 09:48:13;;;;;;;0.62;0.62;;;2.80;99.90;;;;;;4434563;32;20151;-65
2021/12/21 09:50:39;;;;;;;0.70;0.70;;;2.70;99.90;;;;;;4438994;32;20094;-65
2021/12/21 09:53:04;;;;;;;0.60;0.60;;;2.70;99.90;;;;;;4435527;32;20149;-64
2021/12/21 09:55:30;;;;;;;1.30;1.12;;;2.60;99.90;;;;;;4439654;32;20139;-65
2021/12/21 09:58:00;;;;;;;0.88;0.88;;;2.60;99.90;;;;;;4438977;32;20568;-64
2021/12/21 10:00:32;;;;;;;1.37;1.27;;;2.60;99.90;;;;;;4435365;32;20155;-66
2021/12/21 10:03:10;;;;;;;2.17;1.90;;;2.70;99.90;;;;;;4438125;32;20278;-66
2021/12/21 10:05:45;;;;;;;5.45;1.73;;;2.70;99.90;;;;;;4430828;32;20097;-66
2021/12/21 10:08:19;;;;;;;0.43;0.43;;;2.60;99.90;;;;;;4433971;32;20587;-65
2021/12/21 10:10:47;;;;;;;1.58;1.48;;;2.60;99.90;;;;;;4442123;32;20077;-65
2021/12/21 10:13:18;;;;;;;0.43;0.43;;;2.60;99.90;;;;;;4431903;32;20077;-64
2021/12/21 10:15:48;;;;;;;0.57;0.57;;;2.60;99.90;;;;;;4436549;32;20108;-66
2021/12/21 10:18:22;;;;;;;0.40;0.40;;;2.60;99.90;;;;;;4429589;32;20118;-64
2021/12/21 10:20:48;;;;;;;0.52;0.52;;;2.60;99.90;;;;;;4428218;32;20213;-63
2021/12/21 10:23:18;;;;;;;7.03;1.48;;;2.70;99.90;;;;;;4423121;32;20232;-65
2021/12/21 10:25:48;;;;;;;1.92;0.95;;;2.70;99.90;;;;;;4431267;32;20084;-65
2021/12/21 10:28:36;;;;;;;0.75;0.75;;;2.70;99.90;;;;;;4430907;32;20538;-64
2021/12/21 10:31:05;;;;;;;1.50;0.75;;;2.90;99.90;;;;;;4428062;32;20816;-64
2021/12/21 10:33:31;;;;;;;0.95;0.70;;;2.90;99.90;;;;;;4429257;32;20120;-64
2021/12/21 10:36:00;;;;;;;0.47;0.47;;;3.00;99.90;;;;;;4426664;32;20207;-65
2021/12/21 10:38:50;;;;;;;0.47;0.47;;;2.90;99.90;;;;;;4424930;32;20877;-65
2021/12/21 10:41:20;;;;;;;1.20;1.10;;;2.80;99.90;;;;;;4421825;32;20122;-65
2021/12/21 10:44:10;;;;;;;0.90;0.68;;;2.70;99.90;;;;;;4428675;32;20085;-65
2021/12/21 10:46:39;;;;;;;0.45;0.45;;;2.70;99.90;;;;;;4427605;32;20146;-65
2021/12/21 10:49:11;;;;;;;0.45;0.45;;;2.80;99.90;;;;;;4434101;32;20076;-65
2021/12/21 10:51:50;;;;;;;0.57;0.57;;;2.90;99.90;;;;;;4428119;32;20508;-65
2021/12/21 10:54:27;;;;;;;1.00;0.65;;;2.90;99.90;;;;;;4429596;32;20227;-64
2021/12/21 10:57:00;;;;;;;1.25;0.77;;;3.00;99.90;;;;;;4429053;32;20097;-63
2021/12/21 10:59:30;;;;;;;0.45;0.45;;;3.00;99.90;;;;;;4433255;32;20108;-64
2021/12/21 11:02:05;;;;;;;2.70;1.20;;;3.00;99.90;;;;;;4433202;32;20508;-63
2021/12/21 11:04:36;;;;;;;0.30;0.30;;;3.00;99.90;;;;;;4431491;32;20416;-64
2021/12/21 11:09:55;;;;;;;0.87;0.87;;;2.80;99.90;;;;;;4431265;32;20097;-65
2021/12/21 11:12:20;;;;;;;2.65;1.08;;;2.90;99.90;;;;;;4431899;32;20088;-64
2021/12/21 11:14:46;;;;;;;1.50;1.37;;;2.80;99.90;;;;;;4435110;32;20197;-63
2021/12/21 11:17:12;;;;;;;0.43;0.43;;;2.80;99.90;;;;;;4429269;32;20093;-65
2021/12/21 11:19:38;;;;;;;0.37;0.37;;;2.70;99.90;;;;;;4427734;32;20077;-65
2021/12/21 11:22:04;;;;;;;0.68;0.68;;;2.70;99.90;;;;;;4435324;32;20116;-65
2021/12/21 11:24:31;;;;;;;1.08;0.98;;;2.80;99.90;;;;;;4434511;32;20676;-69
2021/12/21 11:27:01;;;;;;;0.57;0.57;;;2.70;99.90;;;;;;4434292;32;20181;-69
2021/12/21 11:29:31;;;;;;;0.60;0.60;;;2.70;99.90;;;;;;4434922;32;20139;-68
2021/12/21 11:32:01;;;;;;;0.40;0.40;;;2.70;99.90;;;;;;4435316;32;20584;-68
2021/12/21 11:34:32;;;;;;;0.32;0.32;;;2.70;99.90;;;;;;4435650;32;20525;-68
2021/12/21 11:37:31;;;;;;;0.40;0.40;;;2.70;99.90;;;;;;4438440;32;20148;-68
2021/12/21 11:39:44;;;;;;;0.40;0.40;;;2.80;99.90;;;;;;4432382;32;20106;-70
2021/12/21 11:42:32;;;;;;;0.37;0.37;;;2.70;99.90;;;;;;4434435;32;20076;-68
2021/12/21 11:45:07;;;;;;;0.70;0.70;;;2.80;99.90;;;;;;4431722;32;20068;-68
2021/12/21 11:47:44;;;;;;;3.37;1.02;;;2.60;99.90;;;;;;4437359;32;20399;-67
2021/12/21 11:50:10;;;;;;;1.90;1.35;;;2.70;99.90;;;;;;4435289;32;20103;-67
2021/12/21 11:52:49;;;;;;;9.43;1.25;;;2.70;99.90;;;;;;4430082;32;20085;-67
2021/12/21 11:55:17;;;;;;;4.90;1.62;;;2.70;99.90;;;;;;4431240;32;20167;-68
2021/12/21 11:57:45;;;;;;;2.10;1.08;;;2.50;99.90;;;;;;4429649;32;20106;-68
2021/12/21 12:00:17;;;;;;;0.65;0.65;;;2.50;99.90;;;;;;4423134;32;20085;-68
2021/12/21 12:02:43;;;;;;;0.60;0.60;;;2.60;99.90;;;;;;4425291;32;20211;-68
2021/12/21 12:05:31;;;;;;;3.17;0.93;;;2.60;99.90;;;;;;4428516;32;20192;-68
2021/12/21 12:08:03;;;;;;;1.10;0.80;;;2.50;99.90;;;;;;4426321;32;20199;-68
2021/12/21 12:10:29;;;;;;;0.43;0.43;;;2.50;99.90;;;;;;4429094;32;20124;-68
2021/12/21 12:13:05;;;;;;;0.50;0.50;;;2.60;99.90;;;;;;4433811;32;20088;-68
2021/12/21 12:15:40;;;;;;;0.45;0.45;;;2.60;99.90;;;;;;4424122;32;20076;-68
2021/12/21 12:18:19;;;;;;;0.60;0.60;;;2.60;99.90;;;;;;4424441;32;20106;-67
2021/12/21 12:20:44;;;;;;;0.95;0.77;;;2.50;99.90;;;;;;4426655;32;20097;-69
2021/12/21 12:23:12;;;;;;;1.35;0.60;;;2.60;99.90;;;;;;4429881;32;20088;-68
2021/12/21 12:25:49;;;;;;;1.35;1.25;;;2.60;99.90;;;;;;4430512;32;20180;-68
2021/12/21 12:28:28;;;;;;;0.52;0.52;;;2.60;99.90;;;;;;4428487;32;20096;-68
2021/12/21 12:30:54;;;;;;;3.70;2.47;;;2.70;99.90;;;;;;4430978;32;20284;-68
2021/12/21 12:33:20;;;;;;;0.50;0.50;;;2.60;99.90;;;;;;4429413;32;20085;-69
2021/12/21 12:35:46;;;;;;;0.52;0.52;;;2.60;99.90;;;;;;4420962;32;20662;-68
2021/12/21 12:38:15;;;;;;;1.85;1.00;;;2.60;99.90;;;;;;4425229;32;20577;-67
2021/12/21 12:40:43;;;;;;;1.70;1.55;;;2.60;99.90;;;;;;4429703;32;20419;-67
2021/12/21 12:43:21;;;;;;;0.98;0.98;;;2.50;99.90;;;;;;4428194;32;20244;-68
2021/12/21 12:45:54;;;;;;;0.98;0.98;;;2.60;99.90;;;;;;4431422;32;20375;-69
2021/12/21 12:48:29;;;;;;;0.32;0.32;;;2.50;99.90;;;;;;4425529;32;20400;-68
2021/12/21 12:50:56;;;;;;;0.45;0.45;;;2.50;99.90;;;;;;4429905;32;20081;-68
2021/12/21 12:53:42;;;;;;;0.73;0.65;;;2.60;99.90;;;;;;4433767;32;20548;-69
2021/12/21 12:56:10;;;;;;;1.98;0.62;;;2.60;99.90;;;;;;4426268;32;20077;-68
2021/12/21 12:58:46;;;;;;;2.12;1.45;;;2.50;99.90;;;;;;4432359;32;20608;-69
2021/12/21 13:01:19;;;;;;;0.50;0.50;;;2.50;99.90;;;;;;4427925;32;20121;-68
2021/12/21 13:03:45;;;;;;;1.70;1.10;;;2.50;99.90;;;;;;4433437;32;20101;-68
2021/12/21 13:06:15;;;;;;;1.27;1.17;;;2.50;99.90;;;;;;4434789;32;20061;-68
2021/12/21 13:08:43;;;;;;;0.80;0.80;;;2.50;99.90;;;;;;4436958;32;20111;-68
2021/12/21 13:11:09;;;;;;;0.70;0.70;;;2.40;99.90;;;;;;4436866;32;20069;-69
2021/12/21 13:13:40;;;;;;;0.60;0.60;;;2.40;99.90;;;;;;4436261;32;20620;-68
2021/12/21 13:16:09;;;;;;;0.60;0.60;;;2.30;99.90;;;;;;4436015;32;20150;-68
2021/12/21 13:18:42;;;;;;;6.32;1.40;;;2.40;99.90;;;;;;4433817;32;20176;-68
2021/12/21 13:21:36;;;;;;;4.12;1.37;;;2.50;99.90;;;;;;4438525;32;20113;-68
2021/12/21 13:24:08;;;;;;;0.70;0.70;;;2.40;99.90;;;;;;4434254;32;20081;-69
2021/12/21 13:26:41;;;;;;;1.85;0.93;;;2.40;99.90;;;;;;4439560;32;20081;-68
2021/12/21 13:29:13;;;;;;;0.52;0.52;;;2.50;99.90;;;;;;4437669;32;20116;-68
2021/12/21 13:31:39;;;;;;;0.90;0.90;;;2.50;99.90;;;;;;4434218;32;20069;-68
2021/12/21 13:34:05;;;;;;;3.60;1.15;;;2.50;99.90;;;;;;4437215;32;20147;-68
2021/12/21 13:36:38;;;;;;;1.23;1.10;;;2.50;99.90;;;;;;4437662;32;20163;-69
2021/12/21 13:39:28;;;;;;;0.70;0.70;;;2.40;99.90;;;;;;4440365;32;20060;-68
2021/12/21 13:41:59;;;;;;;0.68;0.68;;;2.40;99.90;;;;;;4434713;32;20350;-68
2021/12/21 13:44:28;;;;;;;0.70;0.70;;;2.40;99.90;;;;;;4438376;32;20077;-68
2021/12/21 13:46:56;;;;;;;0.60;0.60;;;2.50;99.90;;;;;;4437585;32;20061;-69